This is the latest recevied weather packets stored in our database for station/object K2ATL. If no packets are shown the sender has not sent any weather packets the latest 10 day(s).
| Time | Temp. | Humidity | Pressure | Rain* | Wind** | Luminosity | Snow |
|---|---|---|---|---|---|---|---|
| 1777903645 | 13.33° C | 55% | 1103.1 hPa | 0 mm | - | 532 W/m² | - |
| 1777903340 | 12.22° C | 58% | 1103.2 hPa | 0 mm | - | 525 W/m² | - |
| 1777903038 | 12.78° C | 54% | 1103.2 hPa | 0 mm | - | 528 W/m² | - |
| 1777902734 | 12.78° C | 55% | 1103.1 hPa | 0 mm | - | 519 W/m² | - |
| 1777902432 | 12.22° C | 55% | 1103.1 hPa | 0 mm | - | 494 W/m² | - |
| 1777902128 | 12.78° C | 54% | 1103.2 hPa | 0 mm | - | 476 W/m² | - |
| 1777901827 | 12.22° C | 52% | 1103.1 hPa | 0 mm | - | 453 W/m² | - |
| 1777901524 | 12.22° C | 52% | 1103.3 hPa | 0 mm | - | 428 W/m² | - |
| 1777901221 | 12.22° C | 50% | 1103.4 hPa | 0 mm | - | 389 W/m² | - |
| 1777900918 | 12.22° C | 50% | 1103.2 hPa | 0 mm | - | 393 W/m² | - |
| 1777900615 | 11.11° C | 50% | 1103 hPa | 0 mm | - | 366 W/m² | - |
| 1777900312 | 12.22° C | 49% | 1103 hPa | 0 mm | - | 362 W/m² | - |
| 1777900009 | 12.22° C | 48% | 1102.8 hPa | 0 mm | - | 339 W/m² | - |
| 1777899705 | 12.78° C | 46% | 1103.2 hPa | 0 mm | - | 324 W/m² | - |
| 1777899403 | 12.78° C | 49% | 1103 hPa | 0 mm | - | 302 W/m² | - |
| 1777899101 | 12.78° C | 48% | 1102.6 hPa | 0 mm | - | 286 W/m² | - |
| 1777898798 | 13.89° C | 47% | 1102.8 hPa | 0 mm | - | 265 W/m² | - |
| 1777898495 | 13.33° C | 47% | 1103.1 hPa | 0 mm | - | 245 W/m² | - |
| 1777898193 | 13.33° C | 47% | 1103 hPa | 0 mm | - | 226 W/m² | - |
| 1777897890 | 11.67° C | 52% | 1103 hPa | 0 mm | - | 204 W/m² | - |
| 1777897586 | 11.11° C | 56% | 1103 hPa | 0 mm | - | 160 W/m² | - |
| 1777897281 | 11.11° C | 58% | 1103 hPa | 0 mm | - | 47 W/m² | - |
| 1777896978 | 11.11° C | 57% | 1102.8 hPa | 0 mm | - | 40 W/m² | - |
| 1777896675 | 11.11° C | 57% | 1102.8 hPa | 0 mm | - | 39 W/m² | - |
| 1777896372 | 11.67° C | 58% | 1102.7 hPa | 0 mm | - | 37 W/m² | - |
* Rain latest hour (hover to see other rain measurements)
** Current wind speed in m/s (hover to see current wind gust speed)